ORB9901 LFBO-KMCN
Flight info
| Callsign | ORB9901 |
|---|---|
| Flight time | N/A |
| Altitude | 36000 |
| Route | LACOU DCT GALOF DCT COQUE DCT REGHI/M079F360 DCT DINIM DCT 5120N DCT 5030N DCT H4840 DCT 4750N DCT PORTI/N0453F360 DCT TUSKY/N0460F380 Q475 COPLY Q75 BIZEX Q133 JFK Q419 LAURN Q22 UMBRE Q99 RAANE Q54 HRTWL Q64 FIGEY |
| Aircraft | A21N/M-SDE2E3FGHIRWXY/LB1 |
Departure
| Time | N/A |
|---|---|
| Airport | Toulouse-Blagnac Airport (LFBO) |
Arrival
| Time | 2026-05-07 18:26 |
|---|---|
| Airport | Middle Georgia Regional Airport (KMCN) |
| Time | Latitude | Longitude | Altitude | Speed | Heading |
|---|---|---|---|---|---|
| 2026-05-07 15:24 | 43.11262 | -68.57065 | 35781 ft | 319 kts | 250° |
| 2026-05-07 15:24 | 43.10428 | -68.59871 | 35788 ft | 319 kts | 250° |
| 2026-05-07 15:25 | 43.08755 | -68.65487 | 35795 ft | 319 kts | 250° |
| 2026-05-07 15:25 | 43.07090 | -68.71071 | 35796 ft | 319 kts | 250° |
| 2026-05-07 15:26 | 43.05412 | -68.76681 | 35794 ft | 319 kts | 250° |
| 2026-05-07 15:26 | 43.03733 | -68.82287 | 35794 ft | 319 kts | 250° |
| 2026-05-07 15:27 | 43.02049 | -68.87898 | 35819 ft | 318 kts | 249° |
| 2026-05-07 15:27 | 43.00365 | -68.93489 | 35774 ft | 317 kts | 250° |
| 2026-05-07 15:28 | 42.98689 | -68.99052 | 35796 ft | 317 kts | 250° |
| 2026-05-07 15:28 | 42.97009 | -69.04612 | 35799 ft | 317 kts | 250° |
| 2026-05-07 15:29 | 42.95324 | -69.10168 | 35799 ft | 317 kts | 250° |
| 2026-05-07 15:29 | 42.93637 | -69.15724 | 35801 ft | 317 kts | 250° |
| 2026-05-07 15:30 | 42.91950 | -69.21273 | 35841 ft | 317 kts | 249° |
| 2026-05-07 15:30 | 42.90260 | -69.26824 | 35813 ft | 317 kts | 249° |
| 2026-05-07 15:31 | 42.88567 | -69.32365 | 35805 ft | 317 kts | 249° |
| 2026-05-07 15:31 | 42.86871 | -69.37905 | 35805 ft | 317 kts | 249° |
| 2026-05-07 15:32 | 42.85172 | -69.43445 | 35804 ft | 317 kts | 249° |
| 2026-05-07 15:32 | 42.83469 | -69.48982 | 35805 ft | 317 kts | 249° |
| 2026-05-07 15:33 | 42.81766 | -69.54515 | 35845 ft | 317 kts | 249° |
| 2026-05-07 15:33 | 42.80054 | -69.60053 | 35815 ft | 318 kts | 249° |
| 2026-05-07 15:34 | 42.78339 | -69.65598 | 35806 ft | 317 kts | 249° |
| 2026-05-07 15:34 | 42.76624 | -69.71128 | 35779 ft | 316 kts | 249° |
| 2026-05-07 15:35 | 42.74921 | -69.76608 | 35804 ft | 314 kts | 249° |
| 2026-05-07 15:35 | 42.73218 | -69.82076 | 35811 ft | 314 kts | 249° |
| 2026-05-07 15:36 | 42.71512 | -69.87542 | 35845 ft | 315 kts | 249° |
| 2026-05-07 15:36 | 42.69808 | -69.92996 | 35817 ft | 316 kts | 248° |
| 2026-05-07 15:37 | 42.68081 | -69.98514 | 35805 ft | 316 kts | 248° |
| 2026-05-07 15:37 | 42.66356 | -70.04001 | 35815 ft | 316 kts | 248° |
| 2026-05-07 15:38 | 42.64618 | -70.09469 | 35795 ft | 314 kts | 249° |
| 2026-05-07 15:38 | 42.62890 | -70.14913 | 35817 ft | 314 kts | 249° |
| 2026-05-07 15:39 | 42.61158 | -70.20357 | 35856 ft | 314 kts | 248° |
| 2026-05-07 15:39 | 42.59432 | -70.25764 | 35812 ft | 315 kts | 248° |
| 2026-05-07 15:40 | 42.57691 | -70.31210 | 35820 ft | 315 kts | 248° |
| 2026-05-07 15:40 | 42.55945 | -70.36656 | 35803 ft | 315 kts | 248° |
| 2026-05-07 15:41 | 42.54196 | -70.42097 | 35807 ft | 315 kts | 248° |
| 2026-05-07 15:41 | 42.52445 | -70.47537 | 35767 ft | 315 kts | 248° |
| 2026-05-07 15:42 | 42.50702 | -70.52943 | 35802 ft | 312 kts | 248° |
| 2026-05-07 15:42 | 42.48962 | -70.58338 | 35838 ft | 313 kts | 248° |
| 2026-05-07 15:43 | 42.47210 | -70.63750 | 35826 ft | 314 kts | 248° |
| 2026-05-07 15:43 | 42.45458 | -70.69163 | 35813 ft | 314 kts | 248° |
| 2026-05-07 15:44 | 42.43700 | -70.74572 | 35821 ft | 314 kts | 248° |
| 2026-05-07 15:44 | 42.41939 | -70.79976 | 35830 ft | 314 kts | 248° |
| 2026-05-07 15:45 | 42.40180 | -70.85384 | 35769 ft | 314 kts | 248° |
| 2026-05-07 15:45 | 42.38421 | -70.90764 | 35844 ft | 312 kts | 248° |
| 2026-05-07 15:46 | 42.36078 | -70.97943 | 35836 ft | 312 kts | 248° |
| 2026-05-07 15:47 | 42.34669 | -71.03444 | 35827 ft | 312 kts | 252° |
| 2026-05-07 15:47 | 42.33353 | -71.09032 | 35832 ft | 312 kts | 252° |
| 2026-05-07 15:48 | 42.32029 | -71.14619 | 35828 ft | 312 kts | 252° |
| 2026-05-07 15:48 | 42.30703 | -71.20188 | 35839 ft | 312 kts | 251° |
| 2026-05-07 15:49 | 42.29368 | -71.25769 | 35829 ft | 312 kts | 251° |
| 2026-05-07 15:49 | 42.28035 | -71.31341 | 35759 ft | 312 kts | 252° |
| 2026-05-07 15:50 | 42.26704 | -71.36889 | 35814 ft | 309 kts | 252° |
| 2026-05-07 15:50 | 42.25379 | -71.42408 | 35830 ft | 309 kts | 252° |
| 2026-05-07 15:51 | 42.24053 | -71.47914 | 35837 ft | 309 kts | 252° |
| 2026-05-07 15:51 | 42.22722 | -71.53427 | 35850 ft | 309 kts | 252° |
| 2026-05-07 15:52 | 42.21386 | -71.58949 | 35871 ft | 310 kts | 251° |
| 2026-05-07 15:52 | 42.20041 | -71.64492 | 35855 ft | 311 kts | 251° |
| 2026-05-07 15:53 | 42.18691 | -71.70030 | 35846 ft | 312 kts | 251° |
| 2026-05-07 15:53 | 42.17339 | -71.75578 | 35841 ft | 312 kts | 251° |
| 2026-05-07 15:54 | 42.15983 | -71.81128 | 35809 ft | 311 kts | 251° |
| 2026-05-07 15:54 | 42.14631 | -71.86642 | 35839 ft | 310 kts | 251° |
| 2026-05-07 15:55 | 42.13279 | -71.92143 | 35903 ft | 310 kts | 251° |
| 2026-05-07 15:55 | 42.12594 | -71.94922 | 36069 ft | 314 kts | 251° |
| 2026-05-07 15:55 | 42.11908 | -71.97715 | 36351 ft | 314 kts | 251° |
| 2026-05-07 15:55 | 42.11216 | -72.00506 | 36648 ft | 315 kts | 251° |
| 2026-05-07 15:56 | 42.10520 | -72.03317 | 36911 ft | 316 kts | 251° |
| 2026-05-07 15:56 | 42.09829 | -72.06118 | 37174 ft | 317 kts | 251° |
| 2026-05-07 15:56 | 42.09130 | -72.08943 | 37434 ft | 317 kts | 251° |
| 2026-05-07 15:56 | 42.08431 | -72.11762 | 37662 ft | 318 kts | 251° |
| 2026-05-07 15:57 | 42.07732 | -72.14579 | 37858 ft | 318 kts | 251° |
| 2026-05-07 15:57 | 42.06327 | -72.20237 | 37874 ft | 318 kts | 251° |
| 2026-05-07 15:58 | 42.04921 | -72.25871 | 37898 ft | 318 kts | 251° |
| 2026-05-07 15:58 | 42.03508 | -72.31517 | 37844 ft | 318 kts | 251° |
| 2026-05-07 15:59 | 42.02102 | -72.37137 | 37870 ft | 316 kts | 251° |
| 2026-05-07 15:59 | 42.00702 | -72.42706 | 37877 ft | 316 kts | 251° |
| 2026-05-07 16:00 | 41.99293 | -72.48307 | 37881 ft | 316 kts | 251° |
| 2026-05-07 16:00 | 41.97870 | -72.53951 | 37887 ft | 316 kts | 251° |
| 2026-05-07 16:01 | 41.96468 | -72.59508 | 37893 ft | 316 kts | 251° |
| 2026-05-07 16:01 | 41.95026 | -72.65127 | 37904 ft | 321 kts | 249° |
| 2026-05-07 16:02 | 41.92870 | -72.70390 | 37896 ft | 326 kts | 238° |
| 2026-05-07 16:02 | 41.89746 | -72.74893 | 37831 ft | 330 kts | 233° |
| 2026-05-07 16:03 | 41.86544 | -72.79215 | 37882 ft | 324 kts | 233° |
| 2026-05-07 16:03 | 41.83380 | -72.83525 | 37890 ft | 324 kts | 233° |
| 2026-05-07 16:04 | 41.80216 | -72.87836 | 37887 ft | 324 kts | 233° |
| 2026-05-07 16:04 | 41.77058 | -72.92141 | 37887 ft | 324 kts | 233° |
| 2026-05-07 16:05 | 41.73895 | -72.96444 | 37896 ft | 324 kts | 233° |
| 2026-05-07 16:05 | 41.70721 | -73.00756 | 37911 ft | 325 kts | 233° |
| 2026-05-07 16:06 | 41.67540 | -73.05070 | 37913 ft | 325 kts | 233° |
| 2026-05-07 16:06 | 41.64360 | -73.09376 | 37913 ft | 325 kts | 233° |
| 2026-05-07 16:07 | 41.61172 | -73.13679 | 37923 ft | 325 kts | 233° |
| 2026-05-07 16:07 | 41.57987 | -73.17979 | 37928 ft | 325 kts | 233° |
| 2026-05-07 16:08 | 41.54799 | -73.22276 | 37928 ft | 326 kts | 233° |
| 2026-05-07 16:08 | 41.51620 | -73.26554 | 37938 ft | 325 kts | 233° |
| 2026-05-07 16:09 | 41.48436 | -73.30835 | 37944 ft | 326 kts | 233° |
| 2026-05-07 16:09 | 41.45241 | -73.35181 | 37934 ft | 328 kts | 233° |
| 2026-05-07 16:10 | 41.42043 | -73.39539 | 37924 ft | 329 kts | 233° |
| 2026-05-07 16:10 | 41.38849 | -73.43886 | 37892 ft | 326 kts | 233° |
| 2026-05-07 16:11 | 41.35697 | -73.48174 | 37920 ft | 323 kts | 233° |
| 2026-05-07 16:11 | 41.32545 | -73.52451 | 37930 ft | 324 kts | 233° |
| 2026-05-07 16:12 | 41.29158 | -73.56488 | 37921 ft | 335 kts | 225° |
| 2026-05-07 16:12 | 41.27115 | -73.58057 | 37924 ft | 346 kts | 218° |
| 2026-05-07 16:12 | 41.24814 | -73.59206 | 37915 ft | 361 kts | 211° |
| 2026-05-07 16:13 | 41.19861 | -73.60670 | 37863 ft | 367 kts | 208° |
| 2026-05-07 16:13 | 41.14861 | -73.62088 | 37896 ft | 364 kts | 208° |
| 2026-05-07 16:14 | 41.09955 | -73.63521 | 37908 ft | 364 kts | 209° |
| 2026-05-07 16:14 | 41.04980 | -73.64983 | 37908 ft | 364 kts | 209° |
| 2026-05-07 16:15 | 41.00059 | -73.66431 | 37879 ft | 365 kts | 209° |
| 2026-05-07 16:15 | 40.95105 | -73.67883 | 37900 ft | 365 kts | 209° |
| 2026-05-07 16:16 | 40.90146 | -73.69333 | 37903 ft | 365 kts | 209° |
| 2026-05-07 16:16 | 40.85159 | -73.70791 | 37911 ft | 365 kts | 208° |
| 2026-05-07 16:17 | 40.80200 | -73.72235 | 37850 ft | 364 kts | 209° |
| 2026-05-07 16:17 | 40.75295 | -73.73666 | 37903 ft | 364 kts | 209° |
| 2026-05-07 16:18 | 40.70383 | -73.75191 | 37916 ft | 355 kts | 213° |
| 2026-05-07 16:18 | 40.68146 | -73.76369 | 37918 ft | 341 kts | 220° |
| 2026-05-07 16:18 | 40.66161 | -73.77955 | 37921 ft | 328 kts | 227° |
| 2026-05-07 16:19 | 40.63054 | -73.81984 | 37931 ft | 313 kts | 239° |
| 2026-05-07 16:19 | 40.60969 | -73.87014 | 37905 ft | 307 kts | 251° |
| 2026-05-07 16:20 | 40.59707 | -73.92375 | 37928 ft | 307 kts | 253° |
| 2026-05-07 16:20 | 40.58476 | -73.97761 | 37932 ft | 307 kts | 253° |
| 2026-05-07 16:21 | 40.57222 | -74.03139 | 37957 ft | 308 kts | 253° |
| 2026-05-07 16:21 | 40.55873 | -74.08484 | 37939 ft | 308 kts | 249° |
| 2026-05-07 16:22 | 40.53626 | -74.13329 | 37937 ft | 316 kts | 237° |
| 2026-05-07 16:22 | 40.50347 | -74.17325 | 37936 ft | 327 kts | 230° |
| 2026-05-07 16:23 | 40.46810 | -74.21074 | 37853 ft | 326 kts | 230° |
| 2026-05-07 16:23 | 40.43295 | -74.24839 | 37904 ft | 326 kts | 230° |
| 2026-05-07 16:24 | 40.39781 | -74.28608 | 37928 ft | 326 kts | 230° |
| 2026-05-07 16:24 | 40.36266 | -74.32377 | 37930 ft | 326 kts | 230° |
| 2026-05-07 16:25 | 40.32750 | -74.36143 | 37978 ft | 327 kts | 230° |
| 2026-05-07 16:25 | 40.29232 | -74.39907 | 37940 ft | 327 kts | 230° |
| 2026-05-07 16:26 | 40.25705 | -74.43674 | 37897 ft | 328 kts | 230° |
| 2026-05-07 16:26 | 40.22165 | -74.47447 | 37925 ft | 328 kts | 230° |
| 2026-05-07 16:27 | 40.18848 | -74.51452 | 37923 ft | 321 kts | 236° |
| 2026-05-07 16:27 | 40.15870 | -74.55782 | 37937 ft | 320 kts | 236° |
| 2026-05-07 16:28 | 40.12882 | -74.60110 | 37925 ft | 320 kts | 236° |
| 2026-05-07 16:28 | 40.09892 | -74.64420 | 37878 ft | 320 kts | 236° |
| 2026-05-07 16:29 | 40.07395 | -74.68015 | 37906 ft | 322 kts | 236° |
| 2026-05-07 16:29 | 40.04372 | -74.72334 | 37924 ft | 323 kts | 234° |
| 2026-05-07 16:30 | 40.00832 | -74.76126 | 37933 ft | 334 kts | 226° |
| 2026-05-07 16:30 | 39.97015 | -74.79605 | 37934 ft | 335 kts | 226° |
| 2026-05-07 16:31 | 39.93207 | -74.83093 | 37931 ft | 334 kts | 226° |
| 2026-05-07 16:31 | 39.89454 | -74.86646 | 37891 ft | 331 kts | 230° |
| 2026-05-07 16:32 | 39.85970 | -74.90556 | 37931 ft | 331 kts | 231° |
| 2026-05-07 16:32 | 39.82487 | -74.94517 | 37933 ft | 333 kts | 231° |
| 2026-05-07 16:33 | 39.78993 | -74.98471 | 37929 ft | 333 kts | 231° |
| 2026-05-07 16:33 | 39.75495 | -75.02414 | 37941 ft | 333 kts | 231° |
| 2026-05-07 16:34 | 39.71994 | -75.06350 | 37972 ft | 333 kts | 231° |
| 2026-05-07 16:34 | 39.68507 | -75.10264 | 37943 ft | 330 kts | 231° |
| 2026-05-07 16:35 | 39.65137 | -75.14282 | 37944 ft | 328 kts | 232° |
| 2026-05-07 16:35 | 39.61820 | -75.18338 | 37948 ft | 328 kts | 232° |
| 2026-05-07 16:36 | 39.58501 | -75.22384 | 37932 ft | 328 kts | 232° |
| 2026-05-07 16:36 | 39.55178 | -75.26432 | 37945 ft | 328 kts | 232° |
| 2026-05-07 16:37 | 39.51847 | -75.30478 | 37912 ft | 329 kts | 232° |
| 2026-05-07 16:37 | 39.48497 | -75.34544 | 37937 ft | 331 kts | 232° |
| 2026-05-07 16:38 | 39.45124 | -75.38628 | 37946 ft | 332 kts | 232° |
| 2026-05-07 16:38 | 39.41755 | -75.42708 | 37978 ft | 331 kts | 232° |
| 2026-05-07 16:39 | 39.38394 | -75.46770 | 37942 ft | 330 kts | 232° |
| 2026-05-07 16:39 | 39.35073 | -75.50778 | 37934 ft | 329 kts | 232° |
| 2026-05-07 16:40 | 39.31708 | -75.54838 | 37903 ft | 332 kts | 232° |
| 2026-05-07 16:40 | 39.28325 | -75.58916 | 37927 ft | 334 kts | 232° |
| 2026-05-07 16:41 | 39.24924 | -75.63001 | 37932 ft | 334 kts | 232° |
| 2026-05-07 16:41 | 39.21515 | -75.67083 | 37934 ft | 334 kts | 232° |
| 2026-05-07 16:42 | 39.18093 | -75.71155 | 37935 ft | 334 kts | 232° |
| 2026-05-07 16:42 | 39.14686 | -75.75230 | 37883 ft | 334 kts | 232° |
| 2026-05-07 16:43 | 39.11270 | -75.79331 | 37951 ft | 337 kts | 232° |
| 2026-05-07 16:43 | 39.07844 | -75.83422 | 37941 ft | 336 kts | 232° |
| 2026-05-07 16:44 | 39.04424 | -75.87503 | 37945 ft | 335 kts | 232° |
| 2026-05-07 16:44 | 39.01000 | -75.91591 | 37946 ft | 336 kts | 232° |
| 2026-05-07 16:45 | 38.97596 | -75.95638 | 37956 ft | 336 kts | 232° |
| 2026-05-07 16:45 | 38.94087 | -75.99632 | 37923 ft | 339 kts | 230° |
| 2026-05-07 16:46 | 38.90473 | -76.03556 | 37950 ft | 341 kts | 230° |
| 2026-05-07 16:46 | 38.86854 | -76.07502 | 37956 ft | 341 kts | 230° |
| 2026-05-07 16:47 | 38.83234 | -76.11443 | 37958 ft | 341 kts | 230° |
| 2026-05-07 16:47 | 38.79614 | -76.15378 | 37983 ft | 341 kts | 230° |
| 2026-05-07 16:48 | 38.76009 | -76.19298 | 37964 ft | 339 kts | 230° |
| 2026-05-07 16:48 | 38.72401 | -76.23211 | 37945 ft | 341 kts | 230° |
| 2026-05-07 16:49 | 38.68772 | -76.27147 | 37960 ft | 342 kts | 230° |
| 2026-05-07 16:49 | 38.65144 | -76.31070 | 37966 ft | 342 kts | 230° |
| 2026-05-07 16:50 | 38.61507 | -76.34998 | 37967 ft | 342 kts | 230° |
| 2026-05-07 16:50 | 38.57868 | -76.38921 | 37973 ft | 342 kts | 230° |
| 2026-05-07 16:51 | 38.54224 | -76.42845 | 37924 ft | 343 kts | 230° |
| 2026-05-07 16:51 | 38.50571 | -76.46772 | 37958 ft | 344 kts | 230° |
| 2026-05-07 16:52 | 38.46903 | -76.50699 | 37993 ft | 344 kts | 230° |
| 2026-05-07 16:52 | 38.43244 | -76.54621 | 37968 ft | 343 kts | 230° |
| 2026-05-07 16:53 | 38.39599 | -76.58542 | 37965 ft | 343 kts | 230° |
| 2026-05-07 16:53 | 38.35972 | -76.62483 | 37965 ft | 343 kts | 230° |
| 2026-05-07 16:54 | 38.32324 | -76.66427 | 37937 ft | 345 kts | 230° |
| 2026-05-07 16:54 | 38.28666 | -76.70381 | 37953 ft | 345 kts | 230° |
| 2026-05-07 16:55 | 38.24974 | -76.74306 | 37963 ft | 349 kts | 228° |
| 2026-05-07 16:55 | 38.20714 | -76.77559 | 37961 ft | 360 kts | 221° |
| 2026-05-07 16:56 | 38.16325 | -76.80599 | 37962 ft | 360 kts | 221° |
| 2026-05-07 16:56 | 38.09733 | -76.85196 | 37943 ft | 360 kts | 221° |
| 2026-05-07 16:57 | 38.05366 | -76.88245 | 37981 ft | 360 kts | 221° |
| 2026-05-07 16:57 | 38.00974 | -76.91300 | 37963 ft | 360 kts | 221° |
| 2026-05-07 16:58 | 37.96591 | -76.94359 | 37976 ft | 360 kts | 221° |
| 2026-05-07 16:58 | 37.92200 | -76.97410 | 37970 ft | 360 kts | 220° |
| 2026-05-07 16:59 | 37.87804 | -77.00460 | 37984 ft | 361 kts | 220° |
| 2026-05-07 16:59 | 37.83393 | -77.03518 | 37978 ft | 362 kts | 220° |
| 2026-05-07 17:00 | 37.78979 | -77.06570 | 37978 ft | 361 kts | 220° |
| 2026-05-07 17:00 | 37.74565 | -77.09624 | 37976 ft | 361 kts | 220° |
| 2026-05-07 17:01 | 37.70407 | -77.12999 | 37969 ft | 348 kts | 230° |
| 2026-05-07 17:01 | 37.67379 | -77.17562 | 37959 ft | 335 kts | 243° |
| 2026-05-07 17:02 | 37.65163 | -77.22698 | 37959 ft | 333 kts | 245° |
| 2026-05-07 17:02 | 37.62979 | -77.27831 | 37972 ft | 331 kts | 245° |
| 2026-05-07 17:03 | 37.60779 | -77.32929 | 37958 ft | 331 kts | 245° |
| 2026-05-07 17:03 | 37.58571 | -77.38025 | 37964 ft | 331 kts | 245° |
| 2026-05-07 17:04 | 37.56376 | -77.43080 | 37961 ft | 331 kts | 245° |
| 2026-05-07 17:04 | 37.54168 | -77.48166 | 37965 ft | 331 kts | 245° |
| 2026-05-07 17:05 | 37.51949 | -77.53255 | 37906 ft | 332 kts | 245° |
| 2026-05-07 17:05 | 37.49718 | -77.58368 | 37951 ft | 333 kts | 245° |
| 2026-05-07 17:06 | 37.47490 | -77.63478 | 37976 ft | 333 kts | 245° |
| 2026-05-07 17:06 | 37.45258 | -77.68584 | 37962 ft | 332 kts | 245° |
| 2026-05-07 17:07 | 37.43027 | -77.73677 | 37964 ft | 332 kts | 245° |
| 2026-05-07 17:07 | 37.40755 | -77.78751 | 37963 ft | 334 kts | 242° |
| 2026-05-07 17:08 | 37.37671 | -77.83220 | 37958 ft | 348 kts | 229° |
| 2026-05-07 17:08 | 37.33593 | -77.86685 | 37954 ft | 356 kts | 223° |
| 2026-05-07 17:09 | 37.29429 | -77.89976 | 37936 ft | 356 kts | 223° |
| 2026-05-07 17:09 | 37.25245 | -77.93317 | 37937 ft | 356 kts | 224° |
| 2026-05-07 17:10 | 37.21062 | -77.96663 | 37953 ft | 356 kts | 224° |
| 2026-05-07 17:10 | 37.16896 | -77.99993 | 37930 ft | 355 kts | 224° |
| 2026-05-07 17:11 | 37.12717 | -78.03332 | 37931 ft | 356 kts | 224° |
| 2026-05-07 17:11 | 37.08541 | -78.06663 | 37890 ft | 357 kts | 224° |
| 2026-05-07 17:12 | 37.04340 | -78.10009 | 37926 ft | 358 kts | 224° |
| 2026-05-07 17:12 | 37.00137 | -78.13351 | 37931 ft | 358 kts | 224° |
| 2026-05-07 17:13 | 36.95930 | -78.16693 | 37931 ft | 358 kts | 224° |
| 2026-05-07 17:13 | 36.91726 | -78.20030 | 37933 ft | 358 kts | 224° |
| 2026-05-07 17:14 | 36.87515 | -78.23366 | 37896 ft | 358 kts | 224° |
| 2026-05-07 17:14 | 36.83299 | -78.26697 | 37934 ft | 359 kts | 224° |
| 2026-05-07 17:15 | 36.79078 | -78.30031 | 37944 ft | 359 kts | 224° |
| 2026-05-07 17:15 | 36.75588 | -78.32787 | 37944 ft | 359 kts | 224° |
| 2026-05-07 17:16 | 36.71364 | -78.36115 | 37949 ft | 359 kts | 224° |
| 2026-05-07 17:16 | 36.66457 | -78.39977 | 37871 ft | 359 kts | 224° |
| 2026-05-07 17:17 | 36.62222 | -78.43306 | 37922 ft | 361 kts | 224° |
| 2026-05-07 17:17 | 36.58658 | -78.46103 | 37931 ft | 361 kts | 224° |
| 2026-05-07 17:18 | 36.54409 | -78.49436 | 37916 ft | 361 kts | 224° |
| 2026-05-07 17:18 | 36.50153 | -78.52765 | 37900 ft | 361 kts | 224° |
| 2026-05-07 17:19 | 36.45926 | -78.56074 | 37905 ft | 361 kts | 224° |
| 2026-05-07 17:19 | 36.41807 | -78.59569 | 37867 ft | 358 kts | 226° |
| 2026-05-07 17:20 | 36.37752 | -78.63172 | 37895 ft | 359 kts | 226° |
| 2026-05-07 17:20 | 36.33693 | -78.66766 | 37900 ft | 359 kts | 226° |
| 2026-05-07 17:21 | 36.29631 | -78.70358 | 37901 ft | 357 kts | 226° |
| 2026-05-07 17:21 | 36.25601 | -78.73915 | 37900 ft | 356 kts | 226° |
| 2026-05-07 17:22 | 36.21575 | -78.77462 | 37843 ft | 356 kts | 226° |
| 2026-05-07 17:22 | 36.17518 | -78.81034 | 37900 ft | 359 kts | 226° |
| 2026-05-07 17:23 | 36.13435 | -78.84623 | 37918 ft | 359 kts | 226° |
| 2026-05-07 17:23 | 36.09368 | -78.88192 | 37906 ft | 359 kts | 226° |
| 2026-05-07 17:24 | 36.05282 | -78.91773 | 37872 ft | 360 kts | 226° |
| 2026-05-07 17:24 | 36.01202 | -78.95345 | 37874 ft | 360 kts | 226° |
| 2026-05-07 17:25 | 35.97128 | -78.98907 | 37839 ft | 362 kts | 226° |
| 2026-05-07 17:25 | 35.93018 | -79.02497 | 37857 ft | 362 kts | 226° |
| 2026-05-07 17:26 | 35.88912 | -79.06078 | 37885 ft | 362 kts | 226° |
| 2026-05-07 17:26 | 35.84781 | -79.09675 | 37868 ft | 360 kts | 226° |
| 2026-05-07 17:27 | 35.80687 | -79.13237 | 37864 ft | 361 kts | 226° |
| 2026-05-07 17:27 | 35.76612 | -79.16777 | 37876 ft | 361 kts | 226° |
| 2026-05-07 17:28 | 35.72492 | -79.20357 | 37854 ft | 364 kts | 226° |
| 2026-05-07 17:28 | 35.68346 | -79.23951 | 37868 ft | 365 kts | 226° |
| 2026-05-07 17:29 | 35.64196 | -79.27545 | 37868 ft | 365 kts | 226° |
| 2026-05-07 17:29 | 35.60044 | -79.31137 | 37868 ft | 365 kts | 226° |
| 2026-05-07 17:30 | 35.55886 | -79.34730 | 37874 ft | 365 kts | 226° |
| 2026-05-07 17:30 | 35.51723 | -79.38322 | 37869 ft | 366 kts | 226° |
| 2026-05-07 17:31 | 35.47561 | -79.41906 | 37863 ft | 366 kts | 226° |
| 2026-05-07 17:31 | 35.43405 | -79.45479 | 37881 ft | 362 kts | 226° |
| 2026-05-07 17:32 | 35.39308 | -79.49000 | 37878 ft | 362 kts | 226° |
| 2026-05-07 17:32 | 35.35159 | -79.52563 | 37881 ft | 362 kts | 226° |
| 2026-05-07 17:33 | 35.31062 | -79.56075 | 37881 ft | 362 kts | 226° |
| 2026-05-07 17:33 | 35.26922 | -79.59620 | 37848 ft | 365 kts | 226° |
| 2026-05-07 17:34 | 35.22746 | -79.63192 | 37863 ft | 367 kts | 226° |
| 2026-05-07 17:34 | 35.18579 | -79.66781 | 37860 ft | 364 kts | 227° |
| 2026-05-07 17:35 | 35.15170 | -79.71115 | 37854 ft | 347 kts | 242° |
| 2026-05-07 17:35 | 35.13034 | -79.76316 | 37862 ft | 341 kts | 250° |
| 2026-05-07 17:36 | 35.11165 | -79.81642 | 37871 ft | 341 kts | 250° |
| 2026-05-07 17:36 | 35.09274 | -79.86944 | 37862 ft | 340 kts | 250° |
| 2026-05-07 17:37 | 35.07377 | -79.92227 | 37834 ft | 341 kts | 250° |
| 2026-05-07 17:37 | 35.05459 | -79.97548 | 37863 ft | 343 kts | 250° |
| 2026-05-07 17:38 | 35.03541 | -80.02870 | 37865 ft | 343 kts | 250° |
| 2026-05-07 17:38 | 35.01618 | -80.08195 | 37868 ft | 343 kts | 250° |
| 2026-05-07 17:39 | 34.99688 | -80.13523 | 37864 ft | 343 kts | 250° |
| 2026-05-07 17:39 | 34.97752 | -80.18834 | 37880 ft | 342 kts | 250° |
| 2026-05-07 17:40 | 34.95825 | -80.24118 | 37867 ft | 341 kts | 250° |
| 2026-05-07 17:40 | 34.93899 | -80.29395 | 37866 ft | 340 kts | 250° |
| 2026-05-07 17:41 | 34.91972 | -80.34667 | 37855 ft | 341 kts | 250° |
| 2026-05-07 17:41 | 34.90043 | -80.39934 | 37859 ft | 341 kts | 250° |
| 2026-05-07 17:42 | 34.88119 | -80.45196 | 37863 ft | 340 kts | 250° |
| 2026-05-07 17:42 | 34.86230 | -80.50441 | 37827 ft | 343 kts | 250° |
| 2026-05-07 17:43 | 34.84306 | -80.55772 | 37874 ft | 344 kts | 250° |
| 2026-05-07 17:43 | 34.82385 | -80.61076 | 37866 ft | 342 kts | 250° |
| 2026-05-07 17:44 | 34.80463 | -80.66369 | 37884 ft | 342 kts | 250° |
| 2026-05-07 17:44 | 34.78547 | -80.71647 | 37893 ft | 342 kts | 250° |
| 2026-05-07 17:45 | 34.76615 | -80.76957 | 37901 ft | 342 kts | 250° |
| 2026-05-07 17:45 | 34.74687 | -80.82246 | 37907 ft | 342 kts | 250° |
| 2026-05-07 17:46 | 34.72754 | -80.87539 | 37898 ft | 342 kts | 250° |
| 2026-05-07 17:46 | 34.70822 | -80.92821 | 37902 ft | 342 kts | 249° |
| 2026-05-07 17:47 | 34.68889 | -80.98091 | 37900 ft | 341 kts | 249° |
| 2026-05-07 17:47 | 34.66956 | -81.03361 | 37889 ft | 341 kts | 249° |
| 2026-05-07 17:48 | 34.65020 | -81.08637 | 37851 ft | 345 kts | 250° |
| 2026-05-07 17:48 | 34.63069 | -81.13934 | 37874 ft | 347 kts | 249° |
| 2026-05-07 17:49 | 34.61096 | -81.19289 | 37877 ft | 347 kts | 249° |
| 2026-05-07 17:49 | 34.59120 | -81.24638 | 37874 ft | 347 kts | 249° |
| 2026-05-07 17:50 | 34.57141 | -81.29986 | 37880 ft | 347 kts | 249° |
| 2026-05-07 17:50 | 34.55174 | -81.35305 | 37864 ft | 345 kts | 249° |
| 2026-05-07 17:51 | 34.53208 | -81.40609 | 37862 ft | 345 kts | 249° |
| 2026-05-07 17:51 | 34.51238 | -81.45917 | 37858 ft | 345 kts | 249° |
| 2026-05-07 17:52 | 34.49269 | -81.51218 | 37860 ft | 345 kts | 249° |
| 2026-05-07 17:52 | 34.47296 | -81.56519 | 37863 ft | 345 kts | 249° |
| 2026-05-07 17:53 | 34.45319 | -81.61818 | 37869 ft | 345 kts | 249° |
| 2026-05-07 17:53 | 34.43361 | -81.67061 | 37716 ft | 340 kts | 249° |
| 2026-05-07 17:54 | 34.42380 | -81.69683 | 37429 ft | 343 kts | 249° |
| 2026-05-07 17:54 | 34.41394 | -81.72318 | 37170 ft | 345 kts | 249° |
| 2026-05-07 17:54 | 34.40402 | -81.74967 | 36911 ft | 346 kts | 249° |
| 2026-05-07 17:54 | 34.39407 | -81.77619 | 36656 ft | 346 kts | 249° |
| 2026-05-07 17:55 | 34.38409 | -81.80281 | 36404 ft | 347 kts | 249° |
| 2026-05-07 17:55 | 34.37411 | -81.82943 | 36155 ft | 348 kts | 248° |
| 2026-05-07 17:55 | 34.36405 | -81.85616 | 35908 ft | 349 kts | 248° |
| 2026-05-07 17:55 | 34.35401 | -81.88286 | 35662 ft | 350 kts | 248° |
| 2026-05-07 17:56 | 34.34392 | -81.90969 | 35394 ft | 351 kts | 248° |
| 2026-05-07 17:56 | 34.33380 | -81.93658 | 35092 ft | 351 kts | 248° |
| 2026-05-07 17:56 | 34.32367 | -81.96345 | 34781 ft | 352 kts | 248° |
| 2026-05-07 17:56 | 34.31350 | -81.99039 | 34460 ft | 353 kts | 248° |
| 2026-05-07 17:57 | 34.30327 | -82.01744 | 34147 ft | 354 kts | 248° |
| 2026-05-07 17:57 | 34.29648 | -82.03541 | 33940 ft | 355 kts | 248° |
| 2026-05-07 17:57 | 34.28269 | -82.07183 | 33459 ft | 357 kts | 248° |
| 2026-05-07 17:57 | 34.27235 | -82.09913 | 33094 ft | 358 kts | 248° |
| 2026-05-07 17:58 | 34.26195 | -82.12662 | 32738 ft | 360 kts | 248° |
| 2026-05-07 17:58 | 34.25110 | -82.15402 | 32386 ft | 363 kts | 245° |
| 2026-05-07 17:58 | 34.23811 | -82.18033 | 32039 ft | 367 kts | 242° |
| 2026-05-07 17:58 | 34.22446 | -82.20653 | 31654 ft | 369 kts | 242° |
| 2026-05-07 17:59 | 34.21067 | -82.23291 | 31318 ft | 374 kts | 242° |
| 2026-05-07 17:59 | 34.19672 | -82.25957 | 30988 ft | 377 kts | 242° |
| 2026-05-07 17:59 | 34.18269 | -82.28645 | 30657 ft | 379 kts | 242° |
| 2026-05-07 17:59 | 34.16860 | -82.31340 | 30337 ft | 381 kts | 242° |
| 2026-05-07 18:00 | 34.15444 | -82.34053 | 30000 ft | 382 kts | 242° |
| 2026-05-07 18:00 | 34.14022 | -82.36776 | 29618 ft | 384 kts | 242° |
| 2026-05-07 18:00 | 34.12612 | -82.39471 | 29258 ft | 386 kts | 242° |
| 2026-05-07 18:00 | 34.11162 | -82.42240 | 28879 ft | 385 kts | 242° |
| 2026-05-07 18:01 | 34.09747 | -82.44939 | 28514 ft | 386 kts | 242° |
| 2026-05-07 18:01 | 34.08312 | -82.47673 | 28160 ft | 387 kts | 242° |
| 2026-05-07 18:01 | 34.06869 | -82.50425 | 27804 ft | 388 kts | 242° |
| 2026-05-07 18:01 | 34.05422 | -82.53182 | 27454 ft | 390 kts | 242° |
| 2026-05-07 18:02 | 34.02506 | -82.58726 | 26774 ft | 393 kts | 242° |
| 2026-05-07 18:02 | 34.01040 | -82.61514 | 26436 ft | 395 kts | 242° |
| 2026-05-07 18:02 | 33.99570 | -82.64307 | 26009 ft | 392 kts | 242° |
| 2026-05-07 18:03 | 33.98124 | -82.67046 | 24971 ft | 385 kts | 242° |
| 2026-05-07 18:03 | 33.96684 | -82.69779 | 23868 ft | 397 kts | 242° |
| 2026-05-07 18:03 | 33.95192 | -82.72610 | 22891 ft | 402 kts | 242° |
| 2026-05-07 18:03 | 33.93693 | -82.75440 | 21934 ft | 397 kts | 242° |
| 2026-05-07 18:04 | 33.92220 | -82.78223 | 21078 ft | 390 kts | 242° |
| 2026-05-07 18:04 | 33.90782 | -82.80937 | 20234 ft | 383 kts | 242° |
| 2026-05-07 18:04 | 33.89331 | -82.83604 | 19419 ft | 380 kts | 240° |
| 2026-05-07 18:04 | 33.87630 | -82.86055 | 18615 ft | 382 kts | 232° |
| 2026-05-07 18:05 | 33.85610 | -82.88128 | 17789 ft | 386 kts | 224° |
| 2026-05-07 18:05 | 33.83269 | -82.89805 | 16888 ft | 392 kts | 216° |
| 2026-05-07 18:05 | 33.80812 | -82.91233 | 16017 ft | 392 kts | 214° |
| 2026-05-07 18:05 | 33.78359 | -82.92628 | 15167 ft | 389 kts | 214° |
| 2026-05-07 18:06 | 33.75924 | -82.94024 | 14345 ft | 386 kts | 214° |
| 2026-05-07 18:06 | 33.73512 | -82.95418 | 13473 ft | 385 kts | 214° |
| 2026-05-07 18:06 | 33.71917 | -82.96343 | 12883 ft | 382 kts | 213° |
| 2026-05-07 18:06 | 33.69533 | -82.97729 | 12042 ft | 379 kts | 213° |
| 2026-05-07 18:07 | 33.67202 | -82.99081 | 11430 ft | 364 kts | 213° |
| 2026-05-07 18:07 | 33.64987 | -83.00359 | 11145 ft | 343 kts | 213° |
| 2026-05-07 18:07 | 33.62909 | -83.01558 | 11024 ft | 319 kts | 213° |
| 2026-05-07 18:07 | 33.60988 | -83.02667 | 10976 ft | 295 kts | 214° |
| 2026-05-07 18:08 | 33.59207 | -83.03696 | 10961 ft | 274 kts | 214° |
| 2026-05-07 18:08 | 33.57505 | -83.04690 | 10961 ft | 272 kts | 215° |
| 2026-05-07 18:08 | 33.55802 | -83.05686 | 10973 ft | 272 kts | 214° |
| 2026-05-07 18:08 | 33.54107 | -83.06673 | 10976 ft | 272 kts | 215° |
| 2026-05-07 18:09 | 33.52406 | -83.07663 | 10978 ft | 272 kts | 214° |
| 2026-05-07 18:09 | 33.50705 | -83.08650 | 10981 ft | 272 kts | 214° |
| 2026-05-07 18:09 | 33.48991 | -83.09643 | 10965 ft | 272 kts | 214° |
| 2026-05-07 18:09 | 33.47293 | -83.10626 | 10965 ft | 271 kts | 214° |
| 2026-05-07 18:10 | 33.45593 | -83.11608 | 10971 ft | 271 kts | 214° |
| 2026-05-07 18:10 | 33.43894 | -83.12587 | 10822 ft | 268 kts | 214° |
| 2026-05-07 18:10 | 33.42227 | -83.13547 | 10358 ft | 265 kts | 214° |
| 2026-05-07 18:10 | 33.40570 | -83.14506 | 9863 ft | 264 kts | 214° |
| 2026-05-07 18:11 | 33.38914 | -83.15462 | 9324 ft | 264 kts | 213° |
| 2026-05-07 18:11 | 33.37266 | -83.16411 | 8803 ft | 262 kts | 213° |
| 2026-05-07 18:11 | 33.35627 | -83.17355 | 8290 ft | 261 kts | 213° |
| 2026-05-07 18:11 | 33.33994 | -83.18298 | 7795 ft | 260 kts | 213° |
| 2026-05-07 18:12 | 33.32365 | -83.19236 | 7312 ft | 260 kts | 213° |
| 2026-05-07 18:12 | 33.30739 | -83.20173 | 6875 ft | 258 kts | 212° |
| 2026-05-07 18:12 | 33.29154 | -83.21082 | 6678 ft | 246 kts | 212° |
| 2026-05-07 18:12 | 33.27651 | -83.21943 | 6534 ft | 234 kts | 213° |
| 2026-05-07 18:13 | 33.26213 | -83.22769 | 6240 ft | 225 kts | 213° |
| 2026-05-07 18:13 | 33.24814 | -83.23576 | 5811 ft | 222 kts | 213° |
| 2026-05-07 18:13 | 33.23432 | -83.24373 | 5405 ft | 221 kts | 213° |
| 2026-05-07 18:13 | 33.22045 | -83.25171 | 4998 ft | 219 kts | 213° |
| 2026-05-07 18:14 | 33.20691 | -83.25951 | 4600 ft | 219 kts | 212° |
| 2026-05-07 18:14 | 33.19325 | -83.26736 | 4197 ft | 217 kts | 212° |
| 2026-05-07 18:14 | 33.17968 | -83.27514 | 3766 ft | 217 kts | 212° |
| 2026-05-07 18:14 | 33.16616 | -83.28290 | 3347 ft | 215 kts | 212° |
| 2026-05-07 18:15 | 33.15260 | -83.29069 | 3032 ft | 217 kts | 211° |
| 2026-05-07 18:15 | 33.13894 | -83.29852 | 2957 ft | 218 kts | 211° |
| 2026-05-07 18:15 | 33.12522 | -83.30639 | 2950 ft | 219 kts | 211° |
| 2026-05-07 18:15 | 33.11148 | -83.31425 | 2962 ft | 218 kts | 211° |
| 2026-05-07 18:16 | 33.09781 | -83.32206 | 2965 ft | 218 kts | 211° |
| 2026-05-07 18:16 | 33.08414 | -83.32986 | 2969 ft | 217 kts | 211° |
| 2026-05-07 18:16 | 33.07044 | -83.33771 | 2971 ft | 218 kts | 211° |
| 2026-05-07 18:16 | 33.05677 | -83.34555 | 2976 ft | 218 kts | 211° |
| 2026-05-07 18:17 | 33.04306 | -83.35339 | 2954 ft | 218 kts | 211° |
| 2026-05-07 18:17 | 33.02937 | -83.36118 | 2947 ft | 218 kts | 211° |
| 2026-05-07 18:17 | 33.01591 | -83.36888 | 2945 ft | 220 kts | 211° |
| 2026-05-07 18:17 | 33.00213 | -83.37676 | 2942 ft | 219 kts | 211° |
| 2026-05-07 18:18 | 32.98846 | -83.38458 | 2945 ft | 219 kts | 211° |
| 2026-05-07 18:18 | 32.97475 | -83.39238 | 2941 ft | 218 kts | 211° |
| 2026-05-07 18:18 | 32.96118 | -83.40014 | 2950 ft | 216 kts | 211° |
| 2026-05-07 18:18 | 32.94786 | -83.40777 | 2950 ft | 215 kts | 211° |
| 2026-05-07 18:19 | 32.93438 | -83.41546 | 2955 ft | 215 kts | 212° |
| 2026-05-07 18:19 | 32.92073 | -83.42327 | 2950 ft | 215 kts | 212° |
| 2026-05-07 18:19 | 32.90735 | -83.43088 | 2954 ft | 216 kts | 212° |
| 2026-05-07 18:19 | 32.89384 | -83.43856 | 2970 ft | 214 kts | 211° |
| 2026-05-07 18:20 | 32.88037 | -83.44622 | 2970 ft | 216 kts | 211° |
| 2026-05-07 18:20 | 32.86684 | -83.45391 | 2966 ft | 216 kts | 211° |
| 2026-05-07 18:20 | 32.85320 | -83.46165 | 2968 ft | 217 kts | 211° |
| 2026-05-07 18:20 | 32.83966 | -83.46937 | 2974 ft | 217 kts | 211° |
| 2026-05-07 18:21 | 32.82640 | -83.47755 | 2978 ft | 214 kts | 218° |
| 2026-05-07 18:21 | 32.81563 | -83.48941 | 2986 ft | 210 kts | 232° |
| 2026-05-07 18:21 | 32.80621 | -83.50222 | 2912 ft | 199 kts | 233° |
| 2026-05-07 18:21 | 32.79754 | -83.51392 | 2843 ft | 173 kts | 233° |
| 2026-05-07 18:22 | 32.79015 | -83.52382 | 2668 ft | 150 kts | 233° |
| 2026-05-07 18:22 | 32.78589 | -83.52949 | 2500 ft | 127 kts | 236° |
| 2026-05-07 18:22 | 32.77848 | -83.53927 | 2057 ft | 116 kts | 235° |
| 2026-05-07 18:22 | 32.77309 | -83.54637 | 2065 ft | 115 kts | 236° |
| 2026-05-07 18:23 | 32.76779 | -83.55330 | 2080 ft | 113 kts | 233° |
| 2026-05-07 18:23 | 32.76253 | -83.56039 | 2104 ft | 115 kts | 238° |
| 2026-05-07 18:23 | 32.75719 | -83.56728 | 2079 ft | 115 kts | 235° |
| 2026-05-07 18:23 | 32.75192 | -83.57430 | 1953 ft | 113 kts | 235° |
| 2026-05-07 18:24 | 32.74657 | -83.58117 | 1791 ft | 114 kts | 231° |
| 2026-05-07 18:24 | 32.74128 | -83.58818 | 1630 ft | 114 kts | 232° |
| 2026-05-07 18:24 | 32.73597 | -83.59518 | 1473 ft | 114 kts | 231° |
| 2026-05-07 18:24 | 32.73064 | -83.60220 | 1337 ft | 115 kts | 232° |
| 2026-05-07 18:25 | 32.72530 | -83.60925 | 1181 ft | 114 kts | 233° |
| 2026-05-07 18:25 | 32.71988 | -83.61614 | 1067 ft | 114 kts | 231° |
| 2026-05-07 18:25 | 32.71459 | -83.62326 | 930 ft | 118 kts | 231° |
| 2026-05-07 18:25 | 32.70903 | -83.63070 | 804 ft | 119 kts | 229° |
| 2026-05-07 18:26 | 32.70340 | -83.63781 | 590 ft | 118 kts | 228° |
| 2026-05-07 18:26 | 32.69794 | -83.64506 | 397 ft | 118 kts | 227° |
| 2026-05-07 18:26 | 32.69286 | -83.65170 | 361 ft | 89 kts | 227° |
| 2026-05-07 18:26 | 32.68976 | -83.65574 | 356 ft | 35 kts | 228° |
| 2026-05-07 18:27 | 32.68898 | -83.65705 | 359 ft | 18 kts | 289° |
| 2026-05-07 18:27 | 32.69000 | -83.65740 | 359 ft | 21 kts | 53° |
| 2026-05-07 18:27 | 32.69103 | -83.65604 | 363 ft | 24 kts | 46° |
| 2026-05-07 18:27 | 32.69218 | -83.65451 | 359 ft | 24 kts | 48° |
| 2026-05-07 18:28 | 32.69335 | -83.65300 | 358 ft | 26 kts | 46° |
| 2026-05-07 18:28 | 32.69463 | -83.65189 | 358 ft | 22 kts | 25° |
| 2026-05-07 18:28 | 32.69611 | -83.65133 | 361 ft | 23 kts | 5° |
| 2026-05-07 18:28 | 32.69746 | -83.65134 | 358 ft | 14 kts | 6° |
| 2026-05-07 18:29 | 32.69834 | -83.65069 | 362 ft | 17 kts | 44° |
| 2026-05-07 18:29 | 32.69935 | -83.64960 | 369 ft | 22 kts | 40° |
| 2026-05-07 18:29 | 32.70018 | -83.64824 | 366 ft | 19 kts | 98° |
| 2026-05-07 18:29 | 32.69960 | -83.64683 | 363 ft | 21 kts | 142° |
| 2026-05-07 18:30 | 32.69845 | -83.64565 | 356 ft | 23 kts | 137° |
| 2026-05-07 18:30 | 32.69721 | -83.64431 | 354 ft | 26 kts | 140° |
| 2026-05-07 18:30 | 32.69560 | -83.64311 | 359 ft | 29 kts | 150° |
| 2026-05-07 18:30 | 32.69409 | -83.64206 | 359 ft | 21 kts | 138° |
| 2026-05-07 18:31 | 32.69296 | -83.64075 | 359 ft | 24 kts | 136° |
| 2026-05-07 18:31 | 32.69165 | -83.63925 | 366 ft | 28 kts | 135° |
| 2026-05-07 18:31 | 32.69043 | -83.63784 | 371 ft | 16 kts | 144° |
| 2026-05-07 18:31 | 32.68946 | -83.63860 | 364 ft | 19 kts | 222° |
| 2026-05-07 18:32 | 32.68848 | -83.63897 | 366 ft | 13 kts | 163° |
| 2026-05-07 18:32 | 32.68756 | -83.63864 | 363 ft | 15 kts | 170° |
| 2026-05-07 18:32 | 32.68651 | -83.63859 | 361 ft | 11 kts | 190° |
| 2026-05-07 18:32 | 32.68613 | -83.63948 | 363 ft | 15 kts | 268° |
| 2026-05-07 18:33 | 32.68614 | -83.64085 | 360 ft | 18 kts | 271° |
| 2026-05-07 18:33 | 32.68619 | -83.64249 | 360 ft | 21 kts | 272° |
| 2026-05-07 18:33 | 32.68622 | -83.64368 | 361 ft | 6 kts | 269° |
| 2026-05-07 18:33 | 32.68621 | -83.64430 | 361 ft | 3 kts | 271° |
| 2026-05-07 18:34 | 32.68621 | -83.64433 | 358 ft | 0 kts | 270° |